Jaborandi, Brazil
Current Conditions -  °F | °C
As of 1:00 PM on Saturday 22 Nov 2014 (Local Time) from SBMK Reporting Station
Rain Showers Rain Showers  
Wind Chill: 86°   Ceiling: 7000
Heat Index: 87°   Visibility: 6mi
Dew Point: 64°   Wind: 12mph
Humidity: 48%   Direction: 60°ENE
Pressure: 29.94"   Gusts: NA
Location:  13.62°S, 44.43°W
Report Text: SBMK 221600Z 06010KT 9999 VCSH SCT043 FEW045TCU BKN070 30/18 Q1014
Loading
Personal Weather Stations






























Interactive Weather Map New forecast layout! Learn more

10-Day Weather Forecast

Advertisements
Track Severe Weather on mobile